sensor_id;sensor_type;location;lat;lon;timestamp;P1;durP1;ratioP1;P2;durP2;ratioP2
10945;SDS011;5525;42.648;23.368;2023-07-24T00:01:03;10.00;;;8.07;;
10945;SDS011;5525;42.648;23.368;2023-07-24T00:03:30;10.40;;;7.68;;
10945;SDS011;5525;42.648;23.368;2023-07-24T00:05:57;10.55;;;8.32;;
10945;SDS011;5525;42.648;23.368;2023-07-24T00:08:26;10.43;;;7.90;;
10945;SDS011;5525;42.648;23.368;2023-07-24T00:10:52;10.43;;;7.88;;
10945;SDS011;5525;42.648;23.368;2023-07-24T00:13:19;11.63;;;8.38;;
10945;SDS011;5525;42.648;23.368;2023-07-24T00:15:46;12.73;;;8.50;;
10945;SDS011;5525;42.648;23.368;2023-07-24T00:18:13;10.27;;;8.10;;
10945;SDS011;5525;42.648;23.368;2023-07-24T00:20:39;9.63;;;7.25;;
10945;SDS011;5525;42.648;23.368;2023-07-24T00:23:06;9.55;;;7.90;;
10945;SDS011;5525;42.648;23.368;2023-07-24T00:25:34;10.40;;;8.05;;
10945;SDS011;5525;42.648;23.368;2023-07-24T00:28:00;9.25;;;8.02;;
10945;SDS011;5525;42.648;23.368;2023-07-24T00:30:27;10.50;;;8.18;;
10945;SDS011;5525;42.648;23.368;2023-07-24T00:32:54;10.63;;;8.15;;
10945;SDS011;5525;42.648;23.368;2023-07-24T00:35:20;11.43;;;8.43;;
10945;SDS011;5525;42.648;23.368;2023-07-24T00:37:47;10.68;;;8.25;;
10945;SDS011;5525;42.648;23.368;2023-07-24T00:40:14;10.73;;;7.65;;
10945;SDS011;5525;42.648;23.368;2023-07-24T00:42:45;10.15;;;7.70;;
10945;SDS011;5525;42.648;23.368;2023-07-24T00:45:12;10.73;;;7.93;;
10945;SDS011;5525;42.648;23.368;2023-07-24T00:47:39;12.15;;;7.93;;
10945;SDS011;5525;42.648;23.368;2023-07-24T00:50:07;10.48;;;7.88;;
10945;SDS011;5525;42.648;23.368;2023-07-24T00:52:34;12.27;;;7.82;;
10945;SDS011;5525;42.648;23.368;2023-07-24T00:55:01;11.40;;;8.55;;
10945;SDS011;5525;42.648;23.368;2023-07-24T00:57:28;11.80;;;8.43;;
10945;SDS011;5525;42.648;23.368;2023-07-24T00:59:56;11.05;;;8.25;;
10945;SDS011;5525;42.648;23.368;2023-07-24T01:02:22;12.98;;;7.82;;
10945;SDS011;5525;42.648;23.368;2023-07-24T01:04:49;10.90;;;8.40;;
10945;SDS011;5525;42.648;23.368;2023-07-24T01:07:16;11.18;;;8.13;;
10945;SDS011;5525;42.648;23.368;2023-07-24T01:09:43;12.90;;;9.10;;
10945;SDS011;5525;42.648;23.368;2023-07-24T01:12:10;11.63;;;8.32;;
10945;SDS011;5525;42.648;23.368;2023-07-24T01:14:46;12.77;;;8.55;;
10945;SDS011;5525;42.648;23.368;2023-07-24T01:17:20;15.65;;;9.15;;
10945;SDS011;5525;42.648;23.368;2023-07-24T01:19:50;12.98;;;8.68;;
10945;SDS011;5525;42.648;23.368;2023-07-24T01:22:24;13.73;;;8.68;;
10945;SDS011;5525;42.648;23.368;2023-07-24T01:25:00;11.43;;;8.48;;
10945;SDS011;5525;42.648;23.368;2023-07-24T01:27:31;11.90;;;8.43;;
10945;SDS011;5525;42.648;23.368;2023-07-24T01:29:58;11.80;;;9.00;;
10945;SDS011;5525;42.648;23.368;2023-07-24T01:32:25;12.50;;;8.85;;
10945;SDS011;5525;42.648;23.368;2023-07-24T01:34:51;12.55;;;8.82;;
10945;SDS011;5525;42.648;23.368;2023-07-24T01:37:18;12.55;;;8.80;;
10945;SDS011;5525;42.648;23.368;2023-07-24T01:39:48;11.65;;;8.93;;
10945;SDS011;5525;42.648;23.368;2023-07-24T01:42:16;12.88;;;8.98;;
10945;SDS011;5525;42.648;23.368;2023-07-24T01:44:44;12.82;;;8.90;;
10945;SDS011;5525;42.648;23.368;2023-07-24T01:47:11;13.20;;;9.20;;
10945;SDS011;5525;42.648;23.368;2023-07-24T01:49:38;12.50;;;9.02;;
10945;SDS011;5525;42.648;23.368;2023-07-24T01:52:04;12.52;;;8.45;;
10945;SDS011;5525;42.648;23.368;2023-07-24T01:54:31;11.73;;;8.35;;
10945;SDS011;5525;42.648;23.368;2023-07-24T01:56:58;13.43;;;8.93;;
10945;SDS011;5525;42.648;23.368;2023-07-24T01:59:25;12.45;;;8.82;;
10945;SDS011;5525;42.648;23.368;2023-07-24T02:01:53;13.35;;;8.73;;
10945;SDS011;5525;42.648;23.368;2023-07-24T02:04:19;13.77;;;9.00;;
10945;SDS011;5525;42.648;23.368;2023-07-24T02:06:47;14.80;;;9.57;;
10945;SDS011;5525;42.648;23.368;2023-07-24T02:09:14;11.48;;;8.90;;
10945;SDS011;5525;42.648;23.368;2023-07-24T02:11:40;14.52;;;9.32;;
10945;SDS011;5525;42.648;23.368;2023-07-24T02:14:07;12.30;;;9.05;;
10945;SDS011;5525;42.648;23.368;2023-07-24T02:16:34;15.35;;;10.45;;
10945;SDS011;5525;42.648;23.368;2023-07-24T02:19:03;12.90;;;9.00;;
10945;SDS011;5525;42.648;23.368;2023-07-24T02:21:29;13.48;;;9.30;;
10945;SDS011;5525;42.648;23.368;2023-07-24T02:23:56;12.57;;;9.10;;
10945;SDS011;5525;42.648;23.368;2023-07-24T02:26:22;13.93;;;9.98;;
10945;SDS011;5525;42.648;23.368;2023-07-24T02:28:49;13.65;;;9.10;;
10945;SDS011;5525;42.648;23.368;2023-07-24T02:31:16;13.05;;;9.52;;
10945;SDS011;5525;42.648;23.368;2023-07-24T02:33:42;14.10;;;9.55;;
10945;SDS011;5525;42.648;23.368;2023-07-24T02:36:10;10.77;;;8.60;;
10945;SDS011;5525;42.648;23.368;2023-07-24T02:38:37;14.85;;;8.77;;
10945;SDS011;5525;42.648;23.368;2023-07-24T02:41:04;11.27;;;8.82;;
10945;SDS011;5525;42.648;23.368;2023-07-24T02:43:30;13.43;;;9.45;;
10945;SDS011;5525;42.648;23.368;2023-07-24T02:45:59;13.38;;;10.00;;
10945;SDS011;5525;42.648;23.368;2023-07-24T02:48:27;13.23;;;8.88;;
10945;SDS011;5525;42.648;23.368;2023-07-24T02:50:53;13.40;;;9.18;;
10945;SDS011;5525;42.648;23.368;2023-07-24T02:53:21;14.93;;;9.65;;
10945;SDS011;5525;42.648;23.368;2023-07-24T02:55:48;16.35;;;9.35;;
10945;SDS011;5525;42.648;23.368;2023-07-24T02:58:15;14.48;;;9.48;;
10945;SDS011;5525;42.648;23.368;2023-07-24T03:00:42;13.70;;;9.90;;
10945;SDS011;5525;42.648;23.368;2023-07-24T03:03:09;13.98;;;9.57;;
10945;SDS011;5525;42.648;23.368;2023-07-24T03:05:35;12.85;;;9.18;;
10945;SDS011;5525;42.648;23.368;2023-07-24T03:08:02;14.98;;;9.77;;
10945;SDS011;5525;42.648;23.368;2023-07-24T03:10:30;13.15;;;9.35;;
10945;SDS011;5525;42.648;23.368;2023-07-24T03:12:57;15.95;;;10.52;;
10945;SDS011;5525;42.648;23.368;2023-07-24T03:15:23;14.05;;;10.15;;
10945;SDS011;5525;42.648;23.368;2023-07-24T03:17:50;14.90;;;10.20;;
10945;SDS011;5525;42.648;23.368;2023-07-24T03:20:17;15.23;;;9.85;;
10945;SDS011;5525;42.648;23.368;2023-07-24T03:22:47;12.73;;;8.88;;
10945;SDS011;5525;42.648;23.368;2023-07-24T03:25:13;13.73;;;9.50;;
10945;SDS011;5525;42.648;23.368;2023-07-24T03:27:41;17.48;;;10.23;;
10945;SDS011;5525;42.648;23.368;2023-07-24T03:30:08;13.30;;;9.25;;
10945;SDS011;5525;42.648;23.368;2023-07-24T03:32:35;15.07;;;9.88;;
10945;SDS011;5525;42.648;23.368;2023-07-24T03:35:02;15.88;;;9.95;;
10945;SDS011;5525;42.648;23.368;2023-07-24T03:37:30;14.88;;;9.73;;
10945;SDS011;5525;42.648;23.368;2023-07-24T03:39:56;13.82;;;9.85;;
10945;SDS011;5525;42.648;23.368;2023-07-24T03:42:26;14.23;;;9.80;;
10945;SDS011;5525;42.648;23.368;2023-07-24T03:44:55;15.93;;;9.90;;
10945;SDS011;5525;42.648;23.368;2023-07-24T03:47:22;14.77;;;10.10;;
10945;SDS011;5525;42.648;23.368;2023-07-24T03:49:49;13.57;;;9.45;;
10945;SDS011;5525;42.648;23.368;2023-07-24T03:52:16;15.68;;;10.00;;
10945;SDS011;5525;42.648;23.368;2023-07-24T03:54:43;14.75;;;10.00;;
10945;SDS011;5525;42.648;23.368;2023-07-24T03:57:10;15.05;;;9.88;;
10945;SDS011;5525;42.648;23.368;2023-07-24T03:59:36;16.33;;;10.77;;
10945;SDS011;5525;42.648;23.368;2023-07-24T04:02:04;15.73;;;10.73;;
10945;SDS011;5525;42.648;23.368;2023-07-24T04:04:31;15.77;;;10.55;;
10945;SDS011;5525;42.648;23.368;2023-07-24T04:06:59;16.40;;;10.38;;
10945;SDS011;5525;42.648;23.368;2023-07-24T04:09:26;18.27;;;10.52;;
10945;SDS011;5525;42.648;23.368;2023-07-24T04:11:52;12.88;;;9.45;;
10945;SDS011;5525;42.648;23.368;2023-07-24T04:14:19;13.30;;;9.70;;
10945;SDS011;5525;42.648;23.368;2023-07-24T04:16:46;11.88;;;9.25;;
10945;SDS011;5525;42.648;23.368;2023-07-24T04:19:14;13.45;;;9.80;;
10945;SDS011;5525;42.648;23.368;2023-07-24T04:21:40;14.02;;;9.60;;
10945;SDS011;5525;42.648;23.368;2023-07-24T04:24:07;16.67;;;9.52;;
10945;SDS011;5525;42.648;23.368;2023-07-24T04:26:34;14.77;;;9.68;;
10945;SDS011;5525;42.648;23.368;2023-07-24T04:29:00;11.77;;;9.00;;
10945;SDS011;5525;42.648;23.368;2023-07-24T04:31:27;15.18;;;9.73;;
10945;SDS011;5525;42.648;23.368;2023-07-24T04:33:54;14.43;;;9.73;;
10945;SDS011;5525;42.648;23.368;2023-07-24T04:36:22;14.15;;;9.90;;
10945;SDS011;5525;42.648;23.368;2023-07-24T04:38:48;15.05;;;10.45;;
10945;SDS011;5525;42.648;23.368;2023-07-24T04:41:15;15.40;;;10.52;;
10945;SDS011;5525;42.648;23.368;2023-07-24T04:43:42;13.95;;;10.40;;
10945;SDS011;5525;42.648;23.368;2023-07-24T04:46:08;13.73;;;10.20;;
10945;SDS011;5525;42.648;23.368;2023-07-24T04:48:35;14.95;;;10.73;;
10945;SDS011;5525;42.648;23.368;2023-07-24T04:51:02;16.83;;;10.98;;
10945;SDS011;5525;42.648;23.368;2023-07-24T04:53:30;13.80;;;9.95;;
10945;SDS011;5525;42.648;23.368;2023-07-24T04:55:56;16.38;;;11.00;;
10945;SDS011;5525;42.648;23.368;2023-07-24T04:58:23;17.77;;;11.10;;
10945;SDS011;5525;42.648;23.368;2023-07-24T05:00:50;16.17;;;11.40;;
10945;SDS011;5525;42.648;23.368;2023-07-24T05:03:16;15.10;;;10.80;;
10945;SDS011;5525;42.648;23.368;2023-07-24T05:05:43;15.82;;;11.55;;
10945;SDS011;5525;42.648;23.368;2023-07-24T05:08:10;14.93;;;11.18;;
10945;SDS011;5525;42.648;23.368;2023-07-24T05:10:38;15.38;;;10.95;;
10945;SDS011;5525;42.648;23.368;2023-07-24T05:13:04;13.88;;;11.07;;
10945;SDS011;5525;42.648;23.368;2023-07-24T05:15:31;23.38;;;11.63;;
10945;SDS011;5525;42.648;23.368;2023-07-24T05:17:58;14.63;;;11.25;;
10945;SDS011;5525;42.648;23.368;2023-07-24T05:20:24;13.77;;;11.40;;
10945;SDS011;5525;42.648;23.368;2023-07-24T05:22:51;15.82;;;11.25;;
10945;SDS011;5525;42.648;23.368;2023-07-24T05:25:18;16.08;;;11.57;;
10945;SDS011;5525;42.648;23.368;2023-07-24T05:27:45;13.68;;;10.02;;
10945;SDS011;5525;42.648;23.368;2023-07-24T05:30:12;11.77;;;9.13;;
10945;SDS011;5525;42.648;23.368;2023-07-24T05:32:40;13.10;;;9.70;;
10945;SDS011;5525;42.648;23.368;2023-07-24T05:35:07;12.48;;;9.38;;
10945;SDS011;5525;42.648;23.368;2023-07-24T05:37:34;13.00;;;9.55;;
10945;SDS011;5525;42.648;23.368;2023-07-24T05:40:00;14.00;;;9.90;;
10945;SDS011;5525;42.648;23.368;2023-07-24T05:42:27;15.50;;;9.75;;
10945;SDS011;5525;42.648;23.368;2023-07-24T05:44:55;26.55;;;11.73;;
10945;SDS011;5525;42.648;23.368;2023-07-24T05:47:22;11.77;;;10.40;;
10945;SDS011;5525;42.648;23.368;2023-07-24T05:49:48;12.48;;;10.48;;
10945;SDS011;5525;42.648;23.368;2023-07-24T05:52:15;18.67;;;9.85;;
10945;SDS011;5525;42.648;23.368;2023-07-24T05:54:42;11.68;;;9.82;;
10945;SDS011;5525;42.648;23.368;2023-07-24T05:57:08;13.05;;;9.52;;
10945;SDS011;5525;42.648;23.368;2023-07-24T05:59:35;12.40;;;9.82;;
10945;SDS011;5525;42.648;23.368;2023-07-24T06:02:03;10.80;;;8.77;;
10945;SDS011;5525;42.648;23.368;2023-07-24T06:04:30;11.05;;;9.85;;
10945;SDS011;5525;42.648;23.368;2023-07-24T06:06:57;10.98;;;9.80;;
10945;SDS011;5525;42.648;23.368;2023-07-24T06:09:23;12.32;;;9.63;;
10945;SDS011;5525;42.648;23.368;2023-07-24T06:11:50;13.35;;;10.10;;
10945;SDS011;5525;42.648;23.368;2023-07-24T06:14:17;11.93;;;9.88;;
10945;SDS011;5525;42.648;23.368;2023-07-24T06:16:43;12.27;;;9.98;;
10945;SDS011;5525;42.648;23.368;2023-07-24T06:19:11;15.07;;;10.30;;
10945;SDS011;5525;42.648;23.368;2023-07-24T06:21:38;11.68;;;9.30;;
10945;SDS011;5525;42.648;23.368;2023-07-24T06:24:06;11.18;;;9.18;;
10945;SDS011;5525;42.648;23.368;2023-07-24T06:26:36;33.83;;;10.40;;
10945;SDS011;5525;42.648;23.368;2023-07-24T06:29:03;10.93;;;9.75;;
10945;SDS011;5525;42.648;23.368;2023-07-24T06:31:30;13.80;;;10.63;;
10945;SDS011;5525;42.648;23.368;2023-07-24T06:33:56;11.45;;;10.15;;
10945;SDS011;5525;42.648;23.368;2023-07-24T06:36:24;14.70;;;10.95;;
10945;SDS011;5525;42.648;23.368;2023-07-24T06:38:51;13.98;;;10.70;;
10945;SDS011;5525;42.648;23.368;2023-07-24T06:41:18;12.15;;;10.48;;
10945;SDS011;5525;42.648;23.368;2023-07-24T06:43:45;11.23;;;10.00;;
10945;SDS011;5525;42.648;23.368;2023-07-24T06:46:12;11.75;;;9.50;;
10945;SDS011;5525;42.648;23.368;2023-07-24T06:48:38;13.60;;;9.50;;
10945;SDS011;5525;42.648;23.368;2023-07-24T06:51:05;10.13;;;8.93;;
10945;SDS011;5525;42.648;23.368;2023-07-24T06:53:33;9.80;;;8.65;;
10945;SDS011;5525;42.648;23.368;2023-07-24T06:56:00;10.38;;;8.65;;
10945;SDS011;5525;42.648;23.368;2023-07-24T06:58:27;10.18;;;7.82;;
10945;SDS011;5525;42.648;23.368;2023-07-24T07:00:53;12.25;;;8.77;;
10945;SDS011;5525;42.648;23.368;2023-07-24T07:03:20;11.60;;;8.60;;
10945;SDS011;5525;42.648;23.368;2023-07-24T07:05:46;10.00;;;8.73;;
10945;SDS011;5525;42.648;23.368;2023-07-24T07:08:13;13.80;;;8.35;;
10945;SDS011;5525;42.648;23.368;2023-07-24T07:10:41;9.60;;;7.75;;
10945;SDS011;5525;42.648;23.368;2023-07-24T07:13:08;11.90;;;8.07;;
10945;SDS011;5525;42.648;23.368;2023-07-24T07:15:35;11.50;;;8.05;;
10945;SDS011;5525;42.648;23.368;2023-07-24T07:18:01;11.32;;;7.88;;
10945;SDS011;5525;42.648;23.368;2023-07-24T07:20:28;10.95;;;8.07;;
10945;SDS011;5525;42.648;23.368;2023-07-24T07:22:55;10.05;;;8.65;;
10945;SDS011;5525;42.648;23.368;2023-07-24T07:25:21;10.13;;;8.02;;
10945;SDS011;5525;42.648;23.368;2023-07-24T07:27:49;9.30;;;8.30;;
10945;SDS011;5525;42.648;23.368;2023-07-24T07:30:16;10.80;;;7.85;;
10945;SDS011;5525;42.648;23.368;2023-07-24T07:32:43;9.77;;;7.95;;
10945;SDS011;5525;42.648;23.368;2023-07-24T07:35:10;9.95;;;7.95;;
10945;SDS011;5525;42.648;23.368;2023-07-24T07:37:36;9.55;;;8.60;;
10945;SDS011;5525;42.648;23.368;2023-07-24T07:40:03;9.88;;;7.70;;
10945;SDS011;5525;42.648;23.368;2023-07-24T07:42:31;15.63;;;8.80;;
10945;SDS011;5525;42.648;23.368;2023-07-24T07:44:59;11.05;;;8.25;;
10945;SDS011;5525;42.648;23.368;2023-07-24T07:47:26;9.60;;;8.23;;
10945;SDS011;5525;42.648;23.368;2023-07-24T07:49:52;12.15;;;8.98;;
10945;SDS011;5525;42.648;23.368;2023-07-24T07:52:19;12.00;;;8.57;;
10945;SDS011;5525;42.648;23.368;2023-07-24T07:54:47;10.13;;;8.25;;
10945;SDS011;5525;42.648;23.368;2023-07-24T07:57:14;10.30;;;8.20;;
10945;SDS011;5525;42.648;23.368;2023-07-24T07:59:40;9.75;;;8.75;;
10945;SDS011;5525;42.648;23.368;2023-07-24T08:02:08;24.77;;;9.55;;
10945;SDS011;5525;42.648;23.368;2023-07-24T08:04:35;10.88;;;8.43;;
10945;SDS011;5525;42.648;23.368;2023-07-24T08:07:02;10.88;;;8.13;;
10945;SDS011;5525;42.648;23.368;2023-07-24T08:09:29;10.55;;;9.20;;
10945;SDS011;5525;42.648;23.368;2023-07-24T08:11:57;10.00;;;8.90;;
10945;SDS011;5525;42.648;23.368;2023-07-24T08:14:24;11.68;;;9.25;;
10945;SDS011;5525;42.648;23.368;2023-07-24T08:16:50;13.23;;;9.15;;
10945;SDS011;5525;42.648;23.368;2023-07-24T08:19:19;9.80;;;8.80;;
10945;SDS011;5525;42.648;23.368;2023-07-24T08:21:46;11.38;;;9.18;;
10945;SDS011;5525;42.648;23.368;2023-07-24T08:24:13;10.68;;;9.57;;
10945;SDS011;5525;42.648;23.368;2023-07-24T08:26:40;10.90;;;9.43;;
10945;SDS011;5525;42.648;23.368;2023-07-24T08:29:06;11.68;;;9.48;;
10945;SDS011;5525;42.648;23.368;2023-07-24T08:31:34;11.63;;;8.90;;
10945;SDS011;5525;42.648;23.368;2023-07-24T08:34:00;15.25;;;10.10;;
10945;SDS011;5525;42.648;23.368;2023-07-24T08:36:28;16.92;;;10.60;;
10945;SDS011;5525;42.648;23.368;2023-07-24T08:38:55;11.48;;;9.73;;
10945;SDS011;5525;42.648;23.368;2023-07-24T08:41:22;10.80;;;9.70;;
10945;SDS011;5525;42.648;23.368;2023-07-24T08:43:48;15.35;;;10.30;;
10945;SDS011;5525;42.648;23.368;2023-07-24T08:46:17;11.07;;;9.98;;
10945;SDS011;5525;42.648;23.368;2023-07-24T08:48:44;11.18;;;9.80;;
10945;SDS011;5525;42.648;23.368;2023-07-24T08:51:12;12.63;;;9.60;;
10945;SDS011;5525;42.648;23.368;2023-07-24T08:53:42;11.98;;;9.70;;
10945;SDS011;5525;42.648;23.368;2023-07-24T08:56:10;10.13;;;9.13;;
10945;SDS011;5525;42.648;23.368;2023-07-24T08:58:38;13.98;;;10.38;;
10945;SDS011;5525;42.648;23.368;2023-07-24T09:01:05;13.18;;;10.20;;
10945;SDS011;5525;42.648;23.368;2023-07-24T09:03:33;11.80;;;10.30;;
10945;SDS011;5525;42.648;23.368;2023-07-24T09:06:00;12.43;;;11.07;;
10945;SDS011;5525;42.648;23.368;2023-07-24T09:08:29;14.05;;;10.57;;
10945;SDS011;5525;42.648;23.368;2023-07-24T09:10:57;12.95;;;10.10;;
10945;SDS011;5525;42.648;23.368;2023-07-24T09:13:24;11.52;;;9.93;;
10945;SDS011;5525;42.648;23.368;2023-07-24T09:15:51;14.82;;;9.90;;
10945;SDS011;5525;42.648;23.368;2023-07-24T09:18:18;16.83;;;10.80;;
10945;SDS011;5525;42.648;23.368;2023-07-24T09:20:45;11.13;;;9.80;;
10945;SDS011;5525;42.648;23.368;2023-07-24T09:23:13;12.57;;;10.88;;
10945;SDS011;5525;42.648;23.368;2023-07-24T09:25:40;11.15;;;10.05;;
10945;SDS011;5525;42.648;23.368;2023-07-24T09:28:10;15.68;;;10.52;;
10945;SDS011;5525;42.648;23.368;2023-07-24T09:30:37;12.70;;;10.02;;
10945;SDS011;5525;42.648;23.368;2023-07-24T09:33:05;12.63;;;10.00;;
10945;SDS011;5525;42.648;23.368;2023-07-24T09:35:31;12.90;;;10.85;;
10945;SDS011;5525;42.648;23.368;2023-07-24T09:38:01;14.63;;;10.90;;
10945;SDS011;5525;42.648;23.368;2023-07-24T09:40:36;12.70;;;10.07;;
10945;SDS011;5525;42.648;23.368;2023-07-24T09:43:14;11.90;;;10.45;;
10945;SDS011;5525;42.648;23.368;2023-07-24T09:45:42;13.77;;;10.95;;
10945;SDS011;5525;42.648;23.368;2023-07-24T09:48:10;13.43;;;10.48;;
10945;SDS011;5525;42.648;23.368;2023-07-24T09:50:40;14.73;;;9.98;;
10945;SDS011;5525;42.648;23.368;2023-07-24T09:53:09;13.77;;;9.95;;
10945;SDS011;5525;42.648;23.368;2023-07-24T09:55:40;15.85;;;10.75;;
10945;SDS011;5525;42.648;23.368;2023-07-24T09:58:14;16.67;;;10.88;;
10945;SDS011;5525;42.648;23.368;2023-07-24T10:00:42;11.68;;;10.48;;
10945;SDS011;5525;42.648;23.368;2023-07-24T10:03:12;14.02;;;10.07;;
10945;SDS011;5525;42.648;23.368;2023-07-24T10:05:40;14.40;;;10.40;;
10945;SDS011;5525;42.648;23.368;2023-07-24T10:08:08;10.95;;;9.85;;
10945;SDS011;5525;42.648;23.368;2023-07-24T10:10:36;13.07;;;10.55;;
10945;SDS011;5525;42.648;23.368;2023-07-24T10:13:04;14.48;;;10.50;;
10945;SDS011;5525;42.648;23.368;2023-07-24T10:15:33;14.60;;;10.65;;
10945;SDS011;5525;42.648;23.368;2023-07-24T10:18:01;13.07;;;10.20;;
10945;SDS011;5525;42.648;23.368;2023-07-24T10:20:32;14.57;;;10.95;;
10945;SDS011;5525;42.648;23.368;2023-07-24T10:23:00;14.00;;;10.02;;
10945;SDS011;5525;42.648;23.368;2023-07-24T10:25:28;13.13;;;9.73;;
10945;SDS011;5525;42.648;23.368;2023-07-24T10:28:00;13.55;;;10.15;;
10945;SDS011;5525;42.648;23.368;2023-07-24T10:30:30;13.18;;;10.45;;
10945;SDS011;5525;42.648;23.368;2023-07-24T10:33:04;14.27;;;10.05;;
10945;SDS011;5525;42.648;23.368;2023-07-24T10:35:38;13.27;;;10.35;;
10945;SDS011;5525;42.648;23.368;2023-07-24T10:38:06;11.65;;;9.63;;
10945;SDS011;5525;42.648;23.368;2023-07-24T10:40:33;16.45;;;10.43;;
10945;SDS011;5525;42.648;23.368;2023-07-24T10:43:00;15.20;;;10.55;;
10945;SDS011;5525;42.648;23.368;2023-07-24T10:45:40;21.13;;;10.32;;
10945;SDS011;5525;42.648;23.368;2023-07-24T10:48:09;21.65;;;10.70;;
10945;SDS011;5525;42.648;23.368;2023-07-24T10:50:40;40.40;;;12.55;;
10945;SDS011;5525;42.648;23.368;2023-07-24T10:53:08;11.98;;;8.70;;
10945;SDS011;5525;42.648;23.368;2023-07-24T10:55:35;11.75;;;8.00;;
10945;SDS011;5525;42.648;23.368;2023-07-24T10:58:02;11.43;;;8.18;;
10945;SDS011;5525;42.648;23.368;2023-07-24T11:00:29;12.88;;;8.43;;
10945;SDS011;5525;42.648;23.368;2023-07-24T11:02:55;12.80;;;8.20;;
10945;SDS011;5525;42.648;23.368;2023-07-24T11:05:23;13.43;;;7.95;;
10945;SDS011;5525;42.648;23.368;2023-07-24T11:07:50;9.07;;;7.38;;
10945;SDS011;5525;42.648;23.368;2023-07-24T11:10:17;10.52;;;7.20;;
10945;SDS011;5525;42.648;23.368;2023-07-24T11:12:45;13.88;;;7.88;;
10945;SDS011;5525;42.648;23.368;2023-07-24T11:15:12;10.48;;;7.63;;
10945;SDS011;5525;42.648;23.368;2023-07-24T11:17:41;10.68;;;7.30;;
10945;SDS011;5525;42.648;23.368;2023-07-24T11:20:09;13.68;;;7.78;;
10945;SDS011;5525;42.648;23.368;2023-07-24T11:22:39;13.82;;;7.72;;
10945;SDS011;5525;42.648;23.368;2023-07-24T11:25:07;9.55;;;7.28;;
10945;SDS011;5525;42.648;23.368;2023-07-24T11:27:37;11.23;;;7.45;;
10945;SDS011;5525;42.648;23.368;2023-07-24T11:30:06;14.07;;;7.57;;
10945;SDS011;5525;42.648;23.368;2023-07-24T11:32:34;12.48;;;7.50;;
10945;SDS011;5525;42.648;23.368;2023-07-24T11:35:01;11.73;;;7.93;;
10945;SDS011;5525;42.648;23.368;2023-07-24T11:37:28;11.07;;;7.82;;
10945;SDS011;5525;42.648;23.368;2023-07-24T11:39:57;9.85;;;7.22;;
10945;SDS011;5525;42.648;23.368;2023-07-24T11:42:25;13.60;;;7.45;;
10945;SDS011;5525;42.648;23.368;2023-07-24T11:44:52;11.00;;;7.40;;
10945;SDS011;5525;42.648;23.368;2023-07-24T11:47:20;10.70;;;7.10;;
10945;SDS011;5525;42.648;23.368;2023-07-24T11:49:55;10.02;;;7.25;;
10945;SDS011;5525;42.648;23.368;2023-07-24T11:52:23;12.85;;;8.73;;
10945;SDS011;5525;42.648;23.368;2023-07-24T11:54:55;13.68;;;7.75;;
10945;SDS011;5525;42.648;23.368;2023-07-24T11:57:27;11.25;;;8.45;;
10945;SDS011;5525;42.648;23.368;2023-07-24T11:59:54;10.18;;;7.45;;
10945;SDS011;5525;42.648;23.368;2023-07-24T12:02:23;15.00;;;7.88;;
10945;SDS011;5525;42.648;23.368;2023-07-24T12:04:55;10.85;;;7.50;;
10945;SDS011;5525;42.648;23.368;2023-07-24T12:07:23;13.05;;;7.85;;
10945;SDS011;5525;42.648;23.368;2023-07-24T12:09:54;11.07;;;8.23;;
10945;SDS011;5525;42.648;23.368;2023-07-24T12:12:21;13.82;;;8.10;;
10945;SDS011;5525;42.648;23.368;2023-07-24T12:14:49;13.82;;;8.13;;
10945;SDS011;5525;42.648;23.368;2023-07-24T12:17:17;15.00;;;8.15;;
10945;SDS011;5525;42.648;23.368;2023-07-24T12:19:45;13.52;;;8.10;;
10945;SDS011;5525;42.648;23.368;2023-07-24T12:22:12;12.63;;;8.52;;
10945;SDS011;5525;42.648;23.368;2023-07-24T12:24:38;13.18;;;8.38;;
10945;SDS011;5525;42.648;23.368;2023-07-24T12:27:05;11.85;;;8.00;;
10945;SDS011;5525;42.648;23.368;2023-07-24T12:29:32;10.63;;;7.55;;
10945;SDS011;5525;42.648;23.368;2023-07-24T12:32:00;13.57;;;9.05;;
10945;SDS011;5525;42.648;23.368;2023-07-24T12:34:27;9.50;;;8.23;;
10945;SDS011;5525;42.648;23.368;2023-07-24T12:36:53;13.13;;;7.75;;
10945;SDS011;5525;42.648;23.368;2023-07-24T12:39:20;11.57;;;7.80;;
10945;SDS011;5525;42.648;23.368;2023-07-24T12:41:47;11.90;;;8.00;;
10945;SDS011;5525;42.648;23.368;2023-07-24T12:44:13;12.60;;;7.50;;
10945;SDS011;5525;42.648;23.368;2023-07-24T12:46:40;11.80;;;8.50;;
10945;SDS011;5525;42.648;23.368;2023-07-24T12:49:08;12.68;;;8.45;;
10945;SDS011;5525;42.648;23.368;2023-07-24T12:51:34;11.95;;;7.57;;
10945;SDS011;5525;42.648;23.368;2023-07-24T12:54:01;12.07;;;7.80;;
10945;SDS011;5525;42.648;23.368;2023-07-24T12:56:28;9.60;;;7.40;;
10945;SDS011;5525;42.648;23.368;2023-07-24T12:58:54;12.40;;;7.43;;
10945;SDS011;5525;42.648;23.368;2023-07-24T13:01:21;12.35;;;8.27;;
10945;SDS011;5525;42.648;23.368;2023-07-24T13:03:49;11.63;;;8.40;;
10945;SDS011;5525;42.648;23.368;2023-07-24T13:06:17;11.43;;;7.55;;
10945;SDS011;5525;42.648;23.368;2023-07-24T13:08:43;11.63;;;8.23;;
10945;SDS011;5525;42.648;23.368;2023-07-24T13:11:10;13.43;;;8.43;;
10945;SDS011;5525;42.648;23.368;2023-07-24T13:13:37;14.13;;;8.25;;
10945;SDS011;5525;42.648;23.368;2023-07-24T13:16:03;22.20;;;8.38;;
10945;SDS011;5525;42.648;23.368;2023-07-24T13:18:30;14.45;;;8.15;;
10945;SDS011;5525;42.648;23.368;2023-07-24T13:20:57;10.32;;;8.23;;
10945;SDS011;5525;42.648;23.368;2023-07-24T13:23:25;13.40;;;8.10;;
10945;SDS011;5525;42.648;23.368;2023-07-24T13:25:52;10.77;;;8.13;;
10945;SDS011;5525;42.648;23.368;2023-07-24T13:28:19;15.02;;;8.18;;
10945;SDS011;5525;42.648;23.368;2023-07-24T13:30:45;11.98;;;8.27;;
10945;SDS011;5525;42.648;23.368;2023-07-24T13:33:12;10.60;;;8.25;;
10945;SDS011;5525;42.648;23.368;2023-07-24T13:35:39;11.38;;;7.90;;
10945;SDS011;5525;42.648;23.368;2023-07-24T13:38:05;13.25;;;8.40;;
10945;SDS011;5525;42.648;23.368;2023-07-24T13:40:34;12.80;;;8.50;;
10945;SDS011;5525;42.648;23.368;2023-07-24T13:43:01;13.02;;;8.23;;
10945;SDS011;5525;42.648;23.368;2023-07-24T13:45:28;11.45;;;8.65;;
10945;SDS011;5525;42.648;23.368;2023-07-24T13:47:56;13.32;;;8.57;;
10945;SDS011;5525;42.648;23.368;2023-07-24T13:50:23;10.15;;;8.30;;
10945;SDS011;5525;42.648;23.368;2023-07-24T13:52:49;11.90;;;8.43;;
10945;SDS011;5525;42.648;23.368;2023-07-24T13:55:16;14.90;;;9.35;;
10945;SDS011;5525;42.648;23.368;2023-07-24T13:57:44;12.18;;;8.25;;
10945;SDS011;5525;42.648;23.368;2023-07-24T14:00:11;10.95;;;8.50;;
10945;SDS011;5525;42.648;23.368;2023-07-24T14:02:38;11.88;;;8.88;;
10945;SDS011;5525;42.648;23.368;2023-07-24T14:05:05;13.55;;;8.57;;
10945;SDS011;5525;42.648;23.368;2023-07-24T14:07:33;12.30;;;8.65;;
10945;SDS011;5525;42.648;23.368;2023-07-24T14:10:00;9.77;;;7.80;;
10945;SDS011;5525;42.648;23.368;2023-07-24T14:12:26;14.75;;;8.98;;
10945;SDS011;5525;42.648;23.368;2023-07-24T14:14:54;12.88;;;8.93;;
10945;SDS011;5525;42.648;23.368;2023-07-24T14:17:21;11.05;;;8.20;;
10945;SDS011;5525;42.648;23.368;2023-07-24T14:19:48;12.25;;;8.80;;
10945;SDS011;5525;42.648;23.368;2023-07-24T14:22:14;11.95;;;8.50;;
10945;SDS011;5525;42.648;23.368;2023-07-24T14:24:41;10.60;;;8.57;;
10945;SDS011;5525;42.648;23.368;2023-07-24T14:27:08;10.70;;;9.10;;
10945;SDS011;5525;42.648;23.368;2023-07-24T14:29:34;10.75;;;9.15;;
10945;SDS011;5525;42.648;23.368;2023-07-24T14:32:03;13.50;;;9.30;;